sensor_id;sensor_type;location;lat;lon;timestamp;P1;durP1;ratioP1;P2;durP2;ratioP2
14381;SDS011;7275;50.328;8.720;2023-05-29T00:02:22;3.83;;;2.20;;
14381;SDS011;7275;50.328;8.720;2023-05-29T00:04:51;2.33;;;1.93;;
14381;SDS011;7275;50.328;8.720;2023-05-29T00:07:19;2.33;;;1.97;;
14381;SDS011;7275;50.328;8.720;2023-05-29T00:09:47;3.80;;;2.10;;
14381;SDS011;7275;50.328;8.720;2023-05-29T00:12:15;2.70;;;1.97;;
14381;SDS011;7275;50.328;8.720;2023-05-29T00:14:42;2.93;;;2.20;;
14381;SDS011;7275;50.328;8.720;2023-05-29T00:17:10;3.20;;;2.20;;
14381;SDS011;7275;50.328;8.720;2023-05-29T00:19:38;2.50;;;2.17;;
14381;SDS011;7275;50.328;8.720;2023-05-29T00:22:07;3.30;;;2.27;;
14381;SDS011;7275;50.328;8.720;2023-05-29T00:24:35;3.20;;;2.17;;
14381;SDS011;7275;50.328;8.720;2023-05-29T00:27:03;2.47;;;2.20;;
14381;SDS011;7275;50.328;8.720;2023-05-29T00:29:31;2.40;;;1.97;;
14381;SDS011;7275;50.328;8.720;2023-05-29T00:31:58;2.37;;;1.70;;
14381;SDS011;7275;50.328;8.720;2023-05-29T00:34:26;2.47;;;1.90;;
14381;SDS011;7275;50.328;8.720;2023-05-29T00:36:54;2.43;;;2.00;;
14381;SDS011;7275;50.328;8.720;2023-05-29T00:39:23;2.60;;;2.00;;
14381;SDS011;7275;50.328;8.720;2023-05-29T00:41:50;4.40;;;2.10;;
14381;SDS011;7275;50.328;8.720;2023-05-29T00:44:18;2.60;;;2.20;;
14381;SDS011;7275;50.328;8.720;2023-05-29T00:46:46;2.83;;;2.00;;
14381;SDS011;7275;50.328;8.720;2023-05-29T00:49:15;2.30;;;1.90;;
14381;SDS011;7275;50.328;8.720;2023-05-29T00:51:43;2.73;;;2.10;;
14381;SDS011;7275;50.328;8.720;2023-05-29T00:54:11;2.33;;;2.13;;
14381;SDS011;7275;50.328;8.720;2023-05-29T00:56:43;2.50;;;2.00;;
14381;SDS011;7275;50.328;8.720;2023-05-29T00:59:11;2.70;;;2.10;;
14381;SDS011;7275;50.328;8.720;2023-05-29T01:01:39;2.47;;;1.93;;
14381;SDS011;7275;50.328;8.720;2023-05-29T01:04:07;3.10;;;2.20;;
14381;SDS011;7275;50.328;8.720;2023-05-29T01:06:38;2.67;;;2.20;;
14381;SDS011;7275;50.328;8.720;2023-05-29T01:09:07;2.90;;;2.10;;
14381;SDS011;7275;50.328;8.720;2023-05-29T01:11:36;2.53;;;2.00;;
14381;SDS011;7275;50.328;8.720;2023-05-29T01:14:16;2.57;;;2.10;;
14381;SDS011;7275;50.328;8.720;2023-05-29T01:16:51;2.80;;;2.20;;
14381;SDS011;7275;50.328;8.720;2023-05-29T01:19:34;2.30;;;2.10;;
14381;SDS011;7275;50.328;8.720;2023-05-29T01:22:17;3.77;;;1.90;;
14381;SDS011;7275;50.328;8.720;2023-05-29T01:24:55;3.20;;;2.23;;
14381;SDS011;7275;50.328;8.720;2023-05-29T01:27:32;2.83;;;2.20;;
14381;SDS011;7275;50.328;8.720;2023-05-29T01:30:02;2.80;;;1.97;;
14381;SDS011;7275;50.328;8.720;2023-05-29T01:32:31;2.60;;;2.17;;
14381;SDS011;7275;50.328;8.720;2023-05-29T01:34:59;2.63;;;2.20;;
14381;SDS011;7275;50.328;8.720;2023-05-29T01:37:27;2.50;;;2.23;;
14381;SDS011;7275;50.328;8.720;2023-05-29T01:39:55;2.60;;;2.03;;
14381;SDS011;7275;50.328;8.720;2023-05-29T01:42:23;2.80;;;1.97;;
14381;SDS011;7275;50.328;8.720;2023-05-29T01:44:52;2.97;;;2.03;;
14381;SDS011;7275;50.328;8.720;2023-05-29T01:47:20;2.77;;;2.20;;
14381;SDS011;7275;50.328;8.720;2023-05-29T01:49:48;3.03;;;2.10;;
14381;SDS011;7275;50.328;8.720;2023-05-29T01:52:17;3.17;;;2.10;;
14381;SDS011;7275;50.328;8.720;2023-05-29T01:54:44;3.20;;;1.93;;
14381;SDS011;7275;50.328;8.720;2023-05-29T01:57:12;4.03;;;2.10;;
14381;SDS011;7275;50.328;8.720;2023-05-29T01:59:40;2.83;;;2.33;;
14381;SDS011;7275;50.328;8.720;2023-05-29T02:02:09;2.63;;;2.00;;
14381;SDS011;7275;50.328;8.720;2023-05-29T02:04:37;3.00;;;2.13;;
14381;SDS011;7275;50.328;8.720;2023-05-29T02:07:05;2.70;;;2.20;;
14381;SDS011;7275;50.328;8.720;2023-05-29T02:09:33;2.53;;;2.07;;
14381;SDS011;7275;50.328;8.720;2023-05-29T02:12:02;3.83;;;2.10;;
14381;SDS011;7275;50.328;8.720;2023-05-29T02:14:30;4.53;;;2.43;;
14381;SDS011;7275;50.328;8.720;2023-05-29T02:16:58;2.40;;;2.00;;
14381;SDS011;7275;50.328;8.720;2023-05-29T02:19:28;3.07;;;2.10;;
14381;SDS011;7275;50.328;8.720;2023-05-29T02:21:56;3.57;;;2.23;;
14381;SDS011;7275;50.328;8.720;2023-05-29T02:24:24;2.50;;;2.13;;
14381;SDS011;7275;50.328;8.720;2023-05-29T02:26:51;3.43;;;2.70;;
14381;SDS011;7275;50.328;8.720;2023-05-29T02:29:19;4.43;;;2.47;;
14381;SDS011;7275;50.328;8.720;2023-05-29T02:31:46;4.20;;;2.60;;
14381;SDS011;7275;50.328;8.720;2023-05-29T02:34:14;3.50;;;2.50;;
14381;SDS011;7275;50.328;8.720;2023-05-29T02:36:43;3.73;;;2.60;;
14381;SDS011;7275;50.328;8.720;2023-05-29T02:39:10;2.77;;;2.33;;
14381;SDS011;7275;50.328;8.720;2023-05-29T02:41:38;3.17;;;2.23;;
14381;SDS011;7275;50.328;8.720;2023-05-29T02:44:06;3.10;;;2.27;;
14381;SDS011;7275;50.328;8.720;2023-05-29T02:46:33;4.27;;;2.37;;
14381;SDS011;7275;50.328;8.720;2023-05-29T02:49:01;5.27;;;2.40;;
14381;SDS011;7275;50.328;8.720;2023-05-29T02:51:29;2.83;;;2.30;;
14381;SDS011;7275;50.328;8.720;2023-05-29T02:53:59;3.90;;;2.63;;
14381;SDS011;7275;50.328;8.720;2023-05-29T02:56:27;2.90;;;2.37;;
14381;SDS011;7275;50.328;8.720;2023-05-29T02:58:54;3.47;;;2.63;;
14381;SDS011;7275;50.328;8.720;2023-05-29T03:01:22;3.87;;;2.50;;
14381;SDS011;7275;50.328;8.720;2023-05-29T03:03:50;4.07;;;2.80;;
14381;SDS011;7275;50.328;8.720;2023-05-29T03:06:18;3.23;;;2.60;;
14381;SDS011;7275;50.328;8.720;2023-05-29T03:08:46;3.23;;;2.53;;
14381;SDS011;7275;50.328;8.720;2023-05-29T03:11:15;4.10;;;2.73;;
14381;SDS011;7275;50.328;8.720;2023-05-29T03:13:43;3.33;;;2.70;;
14381;SDS011;7275;50.328;8.720;2023-05-29T03:16:12;3.57;;;2.57;;
14381;SDS011;7275;50.328;8.720;2023-05-29T03:18:40;3.93;;;2.90;;
14381;SDS011;7275;50.328;8.720;2023-05-29T03:21:07;4.10;;;2.80;;
14381;SDS011;7275;50.328;8.720;2023-05-29T03:23:35;3.30;;;2.50;;
14381;SDS011;7275;50.328;8.720;2023-05-29T03:26:03;4.10;;;2.60;;
14381;SDS011;7275;50.328;8.720;2023-05-29T03:28:33;3.07;;;2.47;;
14381;SDS011;7275;50.328;8.720;2023-05-29T03:31:00;3.37;;;2.73;;
14381;SDS011;7275;50.328;8.720;2023-05-29T03:33:28;3.90;;;2.73;;
14381;SDS011;7275;50.328;8.720;2023-05-29T03:35:55;3.80;;;2.40;;
14381;SDS011;7275;50.328;8.720;2023-05-29T03:38:23;3.33;;;2.60;;
14381;SDS011;7275;50.328;8.720;2023-05-29T03:40:51;3.27;;;2.67;;
14381;SDS011;7275;50.328;8.720;2023-05-29T03:43:18;4.67;;;2.80;;
14381;SDS011;7275;50.328;8.720;2023-05-29T03:45:47;3.90;;;2.77;;
14381;SDS011;7275;50.328;8.720;2023-05-29T03:48:15;4.07;;;2.70;;
14381;SDS011;7275;50.328;8.720;2023-05-29T03:50:42;4.33;;;2.60;;
14381;SDS011;7275;50.328;8.720;2023-05-29T03:53:11;3.47;;;2.37;;
14381;SDS011;7275;50.328;8.720;2023-05-29T03:55:38;4.93;;;2.93;;
14381;SDS011;7275;50.328;8.720;2023-05-29T03:58:06;3.53;;;2.87;;
14381;SDS011;7275;50.328;8.720;2023-05-29T04:00:34;3.50;;;2.67;;
14381;SDS011;7275;50.328;8.720;2023-05-29T04:03:03;3.07;;;2.47;;
14381;SDS011;7275;50.328;8.720;2023-05-29T04:05:31;2.90;;;2.40;;
14381;SDS011;7275;50.328;8.720;2023-05-29T04:08:00;4.33;;;2.77;;
14381;SDS011;7275;50.328;8.720;2023-05-29T04:10:40;3.93;;;2.80;;
14381;SDS011;7275;50.328;8.720;2023-05-29T04:13:09;3.50;;;2.50;;
14381;SDS011;7275;50.328;8.720;2023-05-29T04:15:37;3.23;;;2.37;;
14381;SDS011;7275;50.328;8.720;2023-05-29T04:18:06;3.97;;;2.80;;
14381;SDS011;7275;50.328;8.720;2023-05-29T04:20:33;4.57;;;2.60;;
14381;SDS011;7275;50.328;8.720;2023-05-29T04:23:01;3.87;;;2.77;;
14381;SDS011;7275;50.328;8.720;2023-05-29T04:25:29;3.53;;;2.77;;
14381;SDS011;7275;50.328;8.720;2023-05-29T04:27:58;3.43;;;2.67;;
14381;SDS011;7275;50.328;8.720;2023-05-29T04:30:28;3.43;;;2.50;;
14381;SDS011;7275;50.328;8.720;2023-05-29T04:32:58;4.73;;;2.93;;
14381;SDS011;7275;50.328;8.720;2023-05-29T04:35:27;4.60;;;2.80;;
14381;SDS011;7275;50.328;8.720;2023-05-29T04:37:55;3.67;;;2.83;;
14381;SDS011;7275;50.328;8.720;2023-05-29T04:40:24;4.60;;;2.90;;
14381;SDS011;7275;50.328;8.720;2023-05-29T04:42:51;3.57;;;2.80;;
14381;SDS011;7275;50.328;8.720;2023-05-29T04:45:19;3.43;;;2.70;;
14381;SDS011;7275;50.328;8.720;2023-05-29T04:47:47;4.07;;;2.83;;
14381;SDS011;7275;50.328;8.720;2023-05-29T04:50:16;3.90;;;2.83;;
14381;SDS011;7275;50.328;8.720;2023-05-29T04:52:45;3.33;;;2.63;;
14381;SDS011;7275;50.328;8.720;2023-05-29T04:55:13;3.97;;;2.73;;
14381;SDS011;7275;50.328;8.720;2023-05-29T04:57:40;3.93;;;2.70;;
14381;SDS011;7275;50.328;8.720;2023-05-29T05:00:08;3.07;;;2.70;;
14381;SDS011;7275;50.328;8.720;2023-05-29T05:02:41;3.60;;;2.67;;
14381;SDS011;7275;50.328;8.720;2023-05-29T05:05:09;4.40;;;2.73;;
14381;SDS011;7275;50.328;8.720;2023-05-29T05:07:37;3.93;;;2.77;;
14381;SDS011;7275;50.328;8.720;2023-05-29T05:10:06;4.23;;;2.90;;
14381;SDS011;7275;50.328;8.720;2023-05-29T05:12:34;3.97;;;2.97;;
14381;SDS011;7275;50.328;8.720;2023-05-29T05:15:03;4.60;;;2.80;;
14381;SDS011;7275;50.328;8.720;2023-05-29T05:17:31;3.20;;;2.63;;
14381;SDS011;7275;50.328;8.720;2023-05-29T05:19:59;4.27;;;3.00;;
14381;SDS011;7275;50.328;8.720;2023-05-29T05:22:27;3.80;;;2.77;;
14381;SDS011;7275;50.328;8.720;2023-05-29T05:24:54;3.00;;;2.50;;
14381;SDS011;7275;50.328;8.720;2023-05-29T05:27:24;4.20;;;3.00;;
14381;SDS011;7275;50.328;8.720;2023-05-29T05:29:51;3.93;;;2.87;;
14381;SDS011;7275;50.328;8.720;2023-05-29T05:32:19;4.10;;;2.80;;
14381;SDS011;7275;50.328;8.720;2023-05-29T05:34:46;4.13;;;2.83;;
14381;SDS011;7275;50.328;8.720;2023-05-29T05:37:14;4.67;;;3.20;;
14381;SDS011;7275;50.328;8.720;2023-05-29T05:39:41;4.50;;;2.93;;
14381;SDS011;7275;50.328;8.720;2023-05-29T05:42:09;3.83;;;2.50;;
14381;SDS011;7275;50.328;8.720;2023-05-29T05:44:38;5.50;;;2.70;;
14381;SDS011;7275;50.328;8.720;2023-05-29T05:47:05;3.50;;;2.53;;
14381;SDS011;7275;50.328;8.720;2023-05-29T05:49:34;4.10;;;2.90;;
14381;SDS011;7275;50.328;8.720;2023-05-29T05:52:02;3.93;;;2.90;;
14381;SDS011;7275;50.328;8.720;2023-05-29T05:54:29;5.20;;;2.90;;
14381;SDS011;7275;50.328;8.720;2023-05-29T05:56:57;5.10;;;3.00;;
14381;SDS011;7275;50.328;8.720;2023-05-29T05:59:24;4.00;;;2.60;;
14381;SDS011;7275;50.328;8.720;2023-05-29T06:01:54;4.30;;;3.17;;
14381;SDS011;7275;50.328;8.720;2023-05-29T06:04:22;4.77;;;2.57;;
14381;SDS011;7275;50.328;8.720;2023-05-29T06:06:50;4.13;;;2.93;;
14381;SDS011;7275;50.328;8.720;2023-05-29T06:09:17;2.70;;;2.50;;
14381;SDS011;7275;50.328;8.720;2023-05-29T06:11:48;3.57;;;2.90;;
14381;SDS011;7275;50.328;8.720;2023-05-29T06:14:16;3.80;;;2.70;;
14381;SDS011;7275;50.328;8.720;2023-05-29T06:16:43;4.60;;;3.00;;
14381;SDS011;7275;50.328;8.720;2023-05-29T06:19:12;3.40;;;2.70;;
14381;SDS011;7275;50.328;8.720;2023-05-29T06:21:41;4.03;;;2.80;;
14381;SDS011;7275;50.328;8.720;2023-05-29T06:24:08;4.33;;;3.00;;
14381;SDS011;7275;50.328;8.720;2023-05-29T06:26:36;3.23;;;2.67;;
14381;SDS011;7275;50.328;8.720;2023-05-29T06:29:04;4.57;;;3.27;;
14381;SDS011;7275;50.328;8.720;2023-05-29T06:31:33;3.40;;;2.73;;
14381;SDS011;7275;50.328;8.720;2023-05-29T06:34:00;4.67;;;3.20;;
14381;SDS011;7275;50.328;8.720;2023-05-29T06:36:29;4.80;;;2.90;;
14381;SDS011;7275;50.328;8.720;2023-05-29T06:38:58;4.57;;;2.90;;
14381;SDS011;7275;50.328;8.720;2023-05-29T06:41:26;3.77;;;2.80;;
14381;SDS011;7275;50.328;8.720;2023-05-29T06:43:53;5.00;;;3.00;;
14381;SDS011;7275;50.328;8.720;2023-05-29T06:46:21;3.33;;;2.90;;
14381;SDS011;7275;50.328;8.720;2023-05-29T06:48:49;4.17;;;2.93;;
14381;SDS011;7275;50.328;8.720;2023-05-29T06:51:17;4.90;;;3.00;;
14381;SDS011;7275;50.328;8.720;2023-05-29T06:53:46;4.53;;;2.80;;
14381;SDS011;7275;50.328;8.720;2023-05-29T06:56:14;4.03;;;2.90;;
14381;SDS011;7275;50.328;8.720;2023-05-29T06:58:41;3.73;;;2.70;;
14381;SDS011;7275;50.328;8.720;2023-05-29T07:01:09;3.53;;;3.00;;
14381;SDS011;7275;50.328;8.720;2023-05-29T07:03:37;4.23;;;2.60;;
14381;SDS011;7275;50.328;8.720;2023-05-29T07:06:05;3.83;;;2.80;;
14381;SDS011;7275;50.328;8.720;2023-05-29T07:08:33;3.47;;;2.77;;
14381;SDS011;7275;50.328;8.720;2023-05-29T07:11:02;4.07;;;2.70;;
14381;SDS011;7275;50.328;8.720;2023-05-29T07:13:29;4.33;;;2.90;;
14381;SDS011;7275;50.328;8.720;2023-05-29T07:15:57;4.23;;;2.93;;
14381;SDS011;7275;50.328;8.720;2023-05-29T07:18:35;3.47;;;2.67;;
14381;SDS011;7275;50.328;8.720;2023-05-29T07:21:03;4.43;;;2.83;;
14381;SDS011;7275;50.328;8.720;2023-05-29T07:23:30;3.50;;;2.70;;
14381;SDS011;7275;50.328;8.720;2023-05-29T07:25:58;3.80;;;2.77;;
14381;SDS011;7275;50.328;8.720;2023-05-29T07:28:27;4.30;;;2.87;;
14381;SDS011;7275;50.328;8.720;2023-05-29T07:30:54;4.50;;;2.77;;
14381;SDS011;7275;50.328;8.720;2023-05-29T07:33:23;3.50;;;2.70;;
14381;SDS011;7275;50.328;8.720;2023-05-29T07:35:51;4.50;;;2.80;;
14381;SDS011;7275;50.328;8.720;2023-05-29T07:38:18;3.30;;;2.60;;
14381;SDS011;7275;50.328;8.720;2023-05-29T07:40:46;2.67;;;2.47;;
14381;SDS011;7275;50.328;8.720;2023-05-29T07:43:13;4.03;;;3.10;;
14381;SDS011;7275;50.328;8.720;2023-05-29T07:45:42;6.40;;;2.93;;
14381;SDS011;7275;50.328;8.720;2023-05-29T07:48:10;4.93;;;2.57;;
14381;SDS011;7275;50.328;8.720;2023-05-29T07:50:38;3.10;;;2.50;;
14381;SDS011;7275;50.328;8.720;2023-05-29T07:53:06;3.58;;;2.60;;
14381;SDS011;7275;50.328;8.720;2023-05-29T07:55:34;2.63;;;2.37;;
14381;SDS011;7275;50.328;8.720;2023-05-29T07:58:01;3.78;;;2.80;;
14381;SDS011;7275;50.328;8.720;2023-05-29T08:00:29;3.53;;;2.67;;
14381;SDS011;7275;50.328;8.720;2023-05-29T08:02:58;3.70;;;2.55;;
14381;SDS011;7275;50.328;8.720;2023-05-29T08:05:26;3.63;;;2.78;;
14381;SDS011;7275;50.328;8.720;2023-05-29T08:07:54;3.47;;;2.58;;
14381;SDS011;7275;50.328;8.720;2023-05-29T08:10:21;4.82;;;2.45;;
14381;SDS011;7275;50.328;8.720;2023-05-29T08:12:49;3.50;;;2.28;;
14381;SDS011;7275;50.328;8.720;2023-05-29T08:15:16;3.40;;;2.55;;
14381;SDS011;7275;50.328;8.720;2023-05-29T08:17:44;4.10;;;2.80;;
14381;SDS011;7275;50.328;8.720;2023-05-29T08:20:13;5.30;;;2.70;;
14381;SDS011;7275;50.328;8.720;2023-05-29T08:22:41;4.25;;;2.55;;
14381;SDS011;7275;50.328;8.720;2023-05-29T08:25:08;3.80;;;2.60;;
14381;SDS011;7275;50.328;8.720;2023-05-29T08:27:36;3.20;;;2.70;;
14381;SDS011;7275;50.328;8.720;2023-05-29T08:30:04;4.45;;;2.70;;
14381;SDS011;7275;50.328;8.720;2023-05-29T08:32:32;3.05;;;2.50;;
14381;SDS011;7275;50.328;8.720;2023-05-29T08:35:00;4.07;;;2.83;;
14381;SDS011;7275;50.328;8.720;2023-05-29T08:37:29;2.90;;;2.60;;
14381;SDS011;7275;50.328;8.720;2023-05-29T08:39:56;3.53;;;2.80;;
14381;SDS011;7275;50.328;8.720;2023-05-29T08:42:26;3.08;;;2.55;;
14381;SDS011;7275;50.328;8.720;2023-05-29T08:45:00;3.50;;;2.70;;
14381;SDS011;7275;50.328;8.720;2023-05-29T08:47:31;3.28;;;2.60;;
14381;SDS011;7275;50.328;8.720;2023-05-29T08:50:00;4.07;;;2.60;;
14381;SDS011;7275;50.328;8.720;2023-05-29T08:52:32;3.85;;;2.80;;
14381;SDS011;7275;50.328;8.720;2023-05-29T08:55:02;3.97;;;2.78;;
14381;SDS011;7275;50.328;8.720;2023-05-29T08:57:30;3.50;;;2.42;;
14381;SDS011;7275;50.328;8.720;2023-05-29T08:59:58;3.90;;;2.65;;
14381;SDS011;7275;50.328;8.720;2023-05-29T09:02:27;3.72;;;2.80;;
14381;SDS011;7275;50.328;8.720;2023-05-29T09:04:55;3.17;;;2.67;;
14381;SDS011;7275;50.328;8.720;2023-05-29T09:07:23;3.40;;;2.70;;
14381;SDS011;7275;50.328;8.720;2023-05-29T09:09:53;3.42;;;2.60;;
14381;SDS011;7275;50.328;8.720;2023-05-29T09:12:21;4.28;;;2.60;;
14381;SDS011;7275;50.328;8.720;2023-05-29T09:14:49;3.72;;;2.38;;
14381;SDS011;7275;50.328;8.720;2023-05-29T09:17:16;3.03;;;2.30;;
14381;SDS011;7275;50.328;8.720;2023-05-29T09:19:44;2.95;;;2.47;;
14381;SDS011;7275;50.328;8.720;2023-05-29T09:22:12;3.38;;;2.60;;
14381;SDS011;7275;50.328;8.720;2023-05-29T09:24:41;3.63;;;2.75;;
14381;SDS011;7275;50.328;8.720;2023-05-29T09:27:11;3.67;;;2.90;;
14381;SDS011;7275;50.328;8.720;2023-05-29T09:29:39;3.45;;;2.63;;
14381;SDS011;7275;50.328;8.720;2023-05-29T09:32:08;4.32;;;2.60;;
14381;SDS011;7275;50.328;8.720;2023-05-29T09:34:36;4.97;;;2.40;;
14381;SDS011;7275;50.328;8.720;2023-05-29T09:37:04;2.78;;;2.30;;
14381;SDS011;7275;50.328;8.720;2023-05-29T09:39:44;4.90;;;2.67;;
14381;SDS011;7275;50.328;8.720;2023-05-29T09:42:13;3.63;;;2.60;;
14381;SDS011;7275;50.328;8.720;2023-05-29T09:44:42;3.95;;;2.70;;
14381;SDS011;7275;50.328;8.720;2023-05-29T09:47:13;3.35;;;2.50;;
14381;SDS011;7275;50.328;8.720;2023-05-29T09:49:41;3.53;;;2.70;;
14381;SDS011;7275;50.328;8.720;2023-05-29T09:52:10;2.97;;;2.50;;
14381;SDS011;7275;50.328;8.720;2023-05-29T09:54:41;4.07;;;2.55;;
14381;SDS011;7275;50.328;8.720;2023-05-29T09:57:13;4.68;;;2.53;;
14381;SDS011;7275;50.328;8.720;2023-05-29T09:59:41;2.65;;;2.42;;
14381;SDS011;7275;50.328;8.720;2023-05-29T10:02:11;3.25;;;2.40;;
14381;SDS011;7275;50.328;8.720;2023-05-29T10:04:40;4.10;;;2.30;;
14381;SDS011;7275;50.328;8.720;2023-05-29T10:07:08;5.55;;;2.90;;
14381;SDS011;7275;50.328;8.720;2023-05-29T10:09:41;3.53;;;2.63;;
14381;SDS011;7275;50.328;8.720;2023-05-29T10:12:10;3.08;;;2.13;;
14381;SDS011;7275;50.328;8.720;2023-05-29T10:14:40;2.85;;;2.40;;
14381;SDS011;7275;50.328;8.720;2023-05-29T10:17:09;3.80;;;2.30;;
14381;SDS011;7275;50.328;8.720;2023-05-29T10:19:41;2.35;;;1.95;;
14381;SDS011;7275;50.328;8.720;2023-05-29T10:22:12;3.38;;;2.40;;
14381;SDS011;7275;50.328;8.720;2023-05-29T10:24:41;2.55;;;2.35;;
14381;SDS011;7275;50.328;8.720;2023-05-29T10:27:09;2.58;;;2.10;;
14381;SDS011;7275;50.328;8.720;2023-05-29T10:29:37;3.28;;;2.30;;
14381;SDS011;7275;50.328;8.720;2023-05-29T10:32:13;2.75;;;2.30;;
14381;SDS011;7275;50.328;8.720;2023-05-29T10:34:48;3.70;;;2.13;;
14381;SDS011;7275;50.328;8.720;2023-05-29T10:37:30;2.38;;;2.10;;
14381;SDS011;7275;50.328;8.720;2023-05-29T10:40:05;3.13;;;2.20;;
14381;SDS011;7275;50.328;8.720;2023-05-29T10:42:41;2.97;;;2.20;;
14381;SDS011;7275;50.328;8.720;2023-05-29T10:48:37;2.25;;;2.00;;
14381;SDS011;7275;50.328;8.720;2023-05-29T10:51:10;3.05;;;2.40;;
14381;SDS011;7275;50.328;8.720;2023-05-29T10:53:52;3.22;;;2.25;;
14381;SDS011;7275;50.328;8.720;2023-05-29T10:56:20;2.70;;;2.25;;
14381;SDS011;7275;50.328;8.720;2023-05-29T10:58:52;3.00;;;2.35;;
14381;SDS011;7275;50.328;8.720;2023-05-29T11:01:22;2.78;;;2.20;;
14381;SDS011;7275;50.328;8.720;2023-05-29T11:03:53;3.78;;;2.50;;
14381;SDS011;7275;50.328;8.720;2023-05-29T11:06:41;3.40;;;2.38;;
14381;SDS011;7275;50.328;8.720;2023-05-29T11:09:25;2.78;;;2.30;;
14381;SDS011;7275;50.328;8.720;2023-05-29T11:12:13;2.33;;;2.05;;
14381;SDS011;7275;50.328;8.720;2023-05-29T11:14:53;4.88;;;2.30;;
14381;SDS011;7275;50.328;8.720;2023-05-29T11:17:42;2.40;;;2.20;;
14381;SDS011;7275;50.328;8.720;2023-05-29T11:20:22;2.08;;;1.88;;
14381;SDS011;7275;50.328;8.720;2023-05-29T11:23:00;2.20;;;2.00;;
14381;SDS011;7275;50.328;8.720;2023-05-29T11:25:29;2.90;;;2.25;;
14381;SDS011;7275;50.328;8.720;2023-05-29T11:28:01;2.40;;;2.20;;
14381;SDS011;7275;50.328;8.720;2023-05-29T11:30:29;2.30;;;2.05;;
14381;SDS011;7275;50.328;8.720;2023-05-29T11:32:59;3.63;;;2.50;;
14381;SDS011;7275;50.328;8.720;2023-05-29T11:35:34;2.30;;;2.10;;
14381;SDS011;7275;50.328;8.720;2023-05-29T11:38:05;2.47;;;2.05;;
14381;SDS011;7275;50.328;8.720;2023-05-29T11:40:35;3.00;;;2.20;;
14381;SDS011;7275;50.328;8.720;2023-05-29T11:43:03;2.75;;;2.03;;
14381;SDS011;7275;50.328;8.720;2023-05-29T11:45:32;3.30;;;2.10;;
14381;SDS011;7275;50.328;8.720;2023-05-29T11:48:02;2.67;;;2.10;;
14381;SDS011;7275;50.328;8.720;2023-05-29T11:50:30;2.35;;;2.15;;
14381;SDS011;7275;50.328;8.720;2023-05-29T11:53:00;2.65;;;2.10;;
14381;SDS011;7275;50.328;8.720;2023-05-29T11:55:27;2.65;;;2.33;;
14381;SDS011;7275;50.328;8.720;2023-05-29T11:57:56;2.33;;;2.10;;
14381;SDS011;7275;50.328;8.720;2023-05-29T12:00:25;4.38;;;2.40;;
14381;SDS011;7275;50.328;8.720;2023-05-29T12:02:57;2.60;;;2.40;;
14381;SDS011;7275;50.328;8.720;2023-05-29T12:05:31;3.20;;;2.20;;
14381;SDS011;7275;50.328;8.720;2023-05-29T12:07:59;2.33;;;2.10;;
14381;SDS011;7275;50.328;8.720;2023-05-29T12:10:28;3.25;;;2.10;;
14381;SDS011;7275;50.328;8.720;2023-05-29T12:12:57;2.75;;;2.13;;
14381;SDS011;7275;50.328;8.720;2023-05-29T12:15:26;2.78;;;2.20;;
14381;SDS011;7275;50.328;8.720;2023-05-29T12:17:55;2.72;;;2.20;;
14381;SDS011;7275;50.328;8.720;2023-05-29T12:20:24;3.35;;;2.20;;
14381;SDS011;7275;50.328;8.720;2023-05-29T12:22:58;2.60;;;2.15;;
14381;SDS011;7275;50.328;8.720;2023-05-29T12:25:27;2.70;;;2.00;;
14381;SDS011;7275;50.328;8.720;2023-05-29T12:27:55;2.53;;;2.30;;
14381;SDS011;7275;50.328;8.720;2023-05-29T12:30:24;2.22;;;1.92;;
14381;SDS011;7275;50.328;8.720;2023-05-29T12:32:59;2.50;;;2.00;;
14381;SDS011;7275;50.328;8.720;2023-05-29T12:35:28;3.20;;;2.25;;
14381;SDS011;7275;50.328;8.720;2023-05-29T12:37:58;4.72;;;2.28;;
14381;SDS011;7275;50.328;8.720;2023-05-29T12:40:28;2.20;;;2.00;;
14381;SDS011;7275;50.328;8.720;2023-05-29T12:42:57;2.85;;;2.05;;
14381;SDS011;7275;50.328;8.720;2023-05-29T12:45:26;2.85;;;2.40;;
14381;SDS011;7275;50.328;8.720;2023-05-29T12:47:55;2.33;;;2.13;;
14381;SDS011;7275;50.328;8.720;2023-05-29T12:50:24;2.85;;;2.20;;
14381;SDS011;7275;50.328;8.720;2023-05-29T12:52:53;3.13;;;2.20;;
14381;SDS011;7275;50.328;8.720;2023-05-29T12:55:23;3.28;;;2.58;;
14381;SDS011;7275;50.328;8.720;2023-05-29T12:57:51;3.92;;;2.25;;
14381;SDS011;7275;50.328;8.720;2023-05-29T13:00:19;3.00;;;2.22;;
14381;SDS011;7275;50.328;8.720;2023-05-29T13:02:47;2.40;;;2.20;;
14381;SDS011;7275;50.328;8.720;2023-05-29T13:05:16;2.40;;;2.20;;
14381;SDS011;7275;50.328;8.720;2023-05-29T13:07:46;2.63;;;2.30;;
14381;SDS011;7275;50.328;8.720;2023-05-29T13:10:14;2.80;;;2.25;;
14381;SDS011;7275;50.328;8.720;2023-05-29T13:12:43;2.70;;;2.15;;
14381;SDS011;7275;50.328;8.720;2023-05-29T13:15:11;2.63;;;2.42;;
14381;SDS011;7275;50.328;8.720;2023-05-29T13:17:41;2.80;;;2.38;;
14381;SDS011;7275;50.328;8.720;2023-05-29T13:20:10;2.72;;;2.22;;
14381;SDS011;7275;50.328;8.720;2023-05-29T13:22:39;2.30;;;2.10;;
14381;SDS011;7275;50.328;8.720;2023-05-29T13:25:08;3.78;;;2.45;;
14381;SDS011;7275;50.328;8.720;2023-05-29T13:27:37;3.63;;;2.40;;
14381;SDS011;7275;50.328;8.720;2023-05-29T13:30:08;2.90;;;2.58;;
14381;SDS011;7275;50.328;8.720;2023-05-29T13:32:36;4.85;;;2.10;;
14381;SDS011;7275;50.328;8.720;2023-05-29T13:35:04;3.58;;;2.60;;
14381;SDS011;7275;50.328;8.720;2023-05-29T13:37:32;2.80;;;2.50;;
14381;SDS011;7275;50.328;8.720;2023-05-29T13:40:00;2.88;;;2.45;;
14381;SDS011;7275;50.328;8.720;2023-05-29T13:42:28;3.22;;;2.40;;
14381;SDS011;7275;50.328;8.720;2023-05-29T13:44:56;2.80;;;2.50;;
14381;SDS011;7275;50.328;8.720;2023-05-29T13:47:26;2.47;;;2.28;;
14381;SDS011;7275;50.328;8.720;2023-05-29T13:49:55;2.70;;;2.20;;
14381;SDS011;7275;50.328;8.720;2023-05-29T13:52:22;3.85;;;2.20;;
14381;SDS011;7275;50.328;8.720;2023-05-29T13:54:50;3.05;;;2.17;;
14381;SDS011;7275;50.328;8.720;2023-05-29T13:57:18;2.40;;;2.20;;
14381;SDS011;7275;50.328;8.720;2023-05-29T13:59:46;2.85;;;2.17;;
14381;SDS011;7275;50.328;8.720;2023-05-29T14:02:13;3.60;;;2.42;;
14381;SDS011;7275;50.328;8.720;2023-05-29T14:04:43;3.00;;;2.20;;
14381;SDS011;7275;50.328;8.720;2023-05-29T14:07:10;3.90;;;2.30;;
14381;SDS011;7275;50.328;8.720;2023-05-29T14:09:38;3.17;;;2.17;;
14381;SDS011;7275;50.328;8.720;2023-05-29T14:12:06;2.67;;;2.20;;
14381;SDS011;7275;50.328;8.720;2023-05-29T14:14:34;2.45;;;2.20;;
14381;SDS011;7275;50.328;8.720;2023-05-29T14:17:01;2.30;;;2.10;;
14381;SDS011;7275;50.328;8.720;2023-05-29T14:19:31;2.38;;;2.10;;
14381;SDS011;7275;50.328;8.720;2023-05-29T14:22:00;6.15;;;2.50;;
14381;SDS011;7275;50.328;8.720;2023-05-29T14:24:27;2.55;;;2.17;;
14381;SDS011;7275;50.328;8.720;2023-05-29T14:26:55;3.22;;;2.50;;
14381;SDS011;7275;50.328;8.720;2023-05-29T14:29:23;2.40;;;2.20;;
14381;SDS011;7275;50.328;8.720;2023-05-29T14:31:50;2.80;;;2.47;;
14381;SDS011;7275;50.328;8.720;2023-05-29T14:34:18;3.92;;;2.40;;
14381;SDS011;7275;50.328;8.720;2023-05-29T14:36:46;3.13;;;2.22;;
14381;SDS011;7275;50.328;8.720;2023-05-29T14:39:14;3.03;;;2.40;;
14381;SDS011;7275;50.328;8.720;2023-05-29T14:41:42;3.35;;;2.50;;
14381;SDS011;7275;50.328;8.720;2023-05-29T14:44:09;3.47;;;2.60;;
14381;SDS011;7275;50.328;8.720;2023-05-29T14:46:38;4.22;;;2.70;;
14381;SDS011;7275;50.328;8.720;2023-05-29T14:49:06;2.50;;;2.30;;
14381;SDS011;7275;50.328;8.720;2023-05-29T14:51:34;2.60;;;2.40;;
14381;SDS011;7275;50.328;8.720;2023-05-29T14:54:02;3.80;;;2.20;;
14381;SDS011;7275;50.328;8.720;2023-05-29T14:56:32;2.88;;;2.30;;
14381;SDS011;7275;50.328;8.720;2023-05-29T14:58:59;2.50;;;2.00;;
14381;SDS011;7275;50.328;8.720;2023-05-29T15:01:27;2.97;;;2.30;;
14381;SDS011;7275;50.328;8.720;2023-05-29T15:03:54;3.30;;;2.38;;
14381;SDS011;7275;50.328;8.720;2023-05-29T15:06:22;3.33;;;2.50;;
14381;SDS011;7275;50.328;8.720;2023-05-29T15:08:50;2.63;;;2.20;;
14381;SDS011;7275;50.328;8.720;2023-05-29T15:11:18;2.80;;;2.17;;
14381;SDS011;7275;50.328;8.720;2023-05-29T15:13:47;2.50;;;2.15;;
14381;SDS011;7275;50.328;8.720;2023-05-29T15:16:14;2.90;;;2.28;;